Time;durP1;ratioP1;P1;durP2;ratioP2;P2;SDS_P1;SDS_P2;PMS_P1;PMS_P2;Temp;Humidity;BMP_temperature;BMP_pressure;BME280_temperature;BME280_humidity;BME280_pressure;Samples;Min_cycle;Max_cycle;Signal;HPM_P1;HPM_P2
2023/08/04 00:01:59;;;;;;;;;;;;;;;30.10;41.35;100284.20;102408;1305;61416;-82
2023/08/04 00:04:25;;;;;;;;;;;;;;;30.10;41.39;100285.79;102266;1303;61422;-82
2023/08/04 00:06:51;;;;;;;;;;;;;;;30.11;41.36;100282.36;102305;1306;61349;-82
2023/08/04 00:09:17;;;;;;;;;;;;;;;30.10;41.30;100284.00;102286;1303;61380;-82
2023/08/04 00:11:42;;;;;;;;;;;;;;;30.10;41.16;100283.50;102382;1303;61464;-82
2023/08/04 00:14:09;;;;;;;;;;;;;;;30.10;41.51;100286.77;102251;1305;61418;-82
2023/08/04 00:16:35;;;;;;;;;;;;;;;30.10;41.47;100292.52;102330;1303;61913;-82
2023/08/04 00:19:00;;;;;;;;;;;;;;;30.11;41.46;100292.48;102307;1308;61383;-82
2023/08/04 00:21:26;;;;;;;;;;;;;;;30.09;41.45;100289.67;102287;1301;63976;-82
2023/08/04 00:24:00;;;;;;;;;;;;;;;30.09;41.28;100291.34;102361;1307;61444;-82
2023/08/04 00:26:25;;;;;;;;;;;;;;;30.09;41.27;100292.06;102254;1301;61415;-82
2023/08/04 00:28:51;;;;;;;;;;;;;;;30.09;41.54;100292.81;102412;1308;61541;-81
2023/08/04 00:31:16;;;;;;;;;;;;;;;30.09;41.41;100291.34;102297;1302;61405;-82
2023/08/04 00:33:42;;;;;;;;;;;;;;;30.10;41.56;100291.69;102330;1302;61429;-82
2023/08/04 00:36:07;;;;;;;;;;;;;;;30.10;41.46;100294.04;102299;1303;62105;-81
2023/08/04 00:38:33;;;;;;;;;;;;;;;30.09;41.40;100293.59;102303;1308;61844;-81
2023/08/04 00:40:58;;;;;;;;;;;;;;;30.10;41.59;100291.35;102240;1300;61456;-82
2023/08/04 00:43:24;;;;;;;;;;;;;;;30.09;41.40;100287.95;102360;1301;61428;-82
2023/08/04 00:45:49;;;;;;;;;;;;;;;30.09;41.54;100291.17;102264;1303;61451;-82
2023/08/04 00:48:14;;;;;;;;;;;;;;;30.09;41.40;100290.84;102306;1303;61412;-82
2023/08/04 00:50:40;;;;;;;;;;;;;;;30.09;41.46;100289.74;102425;1305;61434;-81
2023/08/04 00:53:05;;;;;;;;;;;;;;;30.09;41.46;100285.27;102334;1302;61350;-81
2023/08/04 00:55:32;;;;;;;;;;;;;;;30.09;41.37;100286.35;102233;1302;61509;-81
2023/08/04 00:57:57;;;;;;;;;;;;;;;30.09;41.60;100287.07;102235;1305;61446;-81
2023/08/04 01:00:24;;;;;;;;;;;;;;;30.08;41.49;100289.45;102344;1306;61487;-81
2023/08/04 01:02:49;;;;;;;;;;;;;;;30.08;41.42;100288.02;102227;1303;61445;-81
2023/08/04 01:05:15;;;;;;;;;;;;;;;30.08;41.53;100285.66;102245;1303;61412;-82
2023/08/04 01:07:53;;;;;;;;;;;;;;;30.08;41.52;100281.93;102274;1302;61442;-82
2023/08/04 01:10:22;;;;;;;;;;;;;;;30.08;41.50;100282.10;102253;1303;65685;-82
2023/08/04 01:12:48;;;;;;;;;;;;;;;30.08;41.67;100283.20;102415;1303;61457;-82
2023/08/04 01:15:13;;;;;;;;;;;;;;;30.08;41.48;100286.80;102354;1303;61413;-82
2023/08/04 01:17:38;;;;;;;;;;;;;;;30.08;41.49;100280.64;102393;1305;61297;-82
2023/08/04 01:20:04;;;;;;;;;;;;;;;30.08;41.45;100284.83;102253;1302;61892;-82
2023/08/04 01:22:29;;;;;;;;;;;;;;;30.08;41.55;100283.02;102279;1302;61393;-82
2023/08/04 01:24:55;;;;;;;;;;;;;;;30.08;41.53;100284.83;102284;1307;61511;-82
2023/08/04 01:27:40;;;;;;;;;;;;;;;30.07;41.60;100282.15;102270;1302;61460;-82
2023/08/04 01:30:08;;;;;;;;;;;;;;;30.08;41.53;100277.74;102188;1303;63689;-82
2023/08/04 01:32:33;;;;;;;;;;;;;;;30.08;41.60;100280.31;102476;1307;65723;-82
2023/08/04 01:34:59;;;;;;;;;;;;;;;30.07;41.62;100277.79;102277;1302;61451;-82
2023/08/04 01:37:24;;;;;;;;;;;;;;;30.07;41.63;100279.26;102237;1303;61586;-82
2023/08/04 01:39:50;;;;;;;;;;;;;;;30.07;41.74;100276.89;102257;1303;61465;-82
2023/08/04 01:42:15;;;;;;;;;;;;;;;30.07;41.54;100278.16;102520;1303;61778;-82
2023/08/04 01:44:41;;;;;;;;;;;;;;;30.07;41.74;100284.23;102267;1305;61342;-82
2023/08/04 01:47:07;;;;;;;;;;;;;;;30.07;41.58;100283.98;102293;1302;61361;-82
2023/08/04 01:49:34;;;;;;;;;;;;;;;30.07;41.47;100282.52;102374;1304;61413;-82
2023/08/04 01:52:00;;;;;;;;;;;;;;;30.07;41.56;100280.95;102349;1303;61419;-82
2023/08/04 01:54:25;;;;;;;;;;;;;;;30.07;41.63;100278.06;102313;1303;61495;-82
2023/08/04 01:56:51;;;;;;;;;;;;;;;30.06;41.64;100278.79;102351;1303;61474;-82
2023/08/04 01:59:16;;;;;;;;;;;;;;;30.07;41.62;100279.69;102350;1301;61313;-82
2023/08/04 02:01:42;;;;;;;;;;;;;;;30.07;41.63;100280.04;102466;1303;61413;-82
2023/08/04 02:04:07;;;;;;;;;;;;;;;30.06;41.72;100279.42;102310;1303;61424;-82
2023/08/04 02:06:32;;;;;;;;;;;;;;;30.07;41.58;100278.78;102330;1303;61451;-82
2023/08/04 02:08:59;;;;;;;;;;;;;;;30.06;41.67;100276.13;102342;1302;61448;-82
2023/08/04 02:11:25;;;;;;;;;;;;;;;30.06;41.73;100276.63;102245;1303;62070;-82
2023/08/04 02:13:50;;;;;;;;;;;;;;;30.06;41.66;100276.29;102236;1303;61422;-83
2023/08/04 02:16:15;;;;;;;;;;;;;;;30.06;41.73;100277.24;102304;1303;61501;-83
2023/08/04 02:18:41;;;;;;;;;;;;;;;30.06;41.77;100274.53;102268;1303;61416;-83
2023/08/04 02:21:07;;;;;;;;;;;;;;;30.06;41.64;100276.70;102349;1302;61421;-83
2023/08/04 02:23:35;;;;;;;;;;;;;;;30.06;41.82;100278.88;102344;1303;62369;-83
2023/08/04 02:26:00;;;;;;;;;;;;;;;30.06;41.79;100286.50;102269;1308;61515;-83
2023/08/04 02:28:25;;;;;;;;;;;;;;;30.05;41.69;100288.71;102272;1303;61422;-82
2023/08/04 02:30:51;;;;;;;;;;;;;;;30.05;41.70;100291.98;102325;1306;61392;-82
2023/08/04 02:33:16;;;;;;;;;;;;;;;30.05;41.77;100292.52;102228;1303;61354;-82
2023/08/04 02:35:43;;;;;;;;;;;;;;;30.05;41.78;100291.48;102231;1303;61943;-82
2023/08/04 02:38:08;;;;;;;;;;;;;;;30.05;41.82;100294.94;102348;1303;61402;-81
2023/08/04 02:40:34;;;;;;;;;;;;;;;30.06;41.78;100295.79;102235;1308;61579;-81
2023/08/04 02:43:00;;;;;;;;;;;;;;;30.05;41.68;100295.45;102289;1303;61432;-81
2023/08/04 02:45:25;;;;;;;;;;;;;;;30.05;41.75;100290.08;102357;1303;61425;-81
2023/08/04 02:47:51;;;;;;;;;;;;;;;30.04;41.72;100290.53;102260;1300;61406;-81
2023/08/04 02:50:16;;;;;;;;;;;;;;;30.05;41.78;100287.38;102314;1303;61354;-81
2023/08/04 02:52:41;;;;;;;;;;;;;;;30.05;41.74;100289.92;102354;1303;61507;-82
2023/08/04 02:55:07;;;;;;;;;;;;;;;30.05;41.93;100289.34;102330;1303;61381;-81
2023/08/04 02:57:35;;;;;;;;;;;;;;;30.05;41.80;100287.91;102371;1303;61501;-81
2023/08/04 03:00:02;;;;;;;;;;;;;;;30.04;41.88;100285.59;102312;1303;61452;-82
2023/08/04 03:02:28;;;;;;;;;;;;;;;30.05;42.02;100289.74;102244;1302;63800;-82
2023/08/04 03:04:53;;;;;;;;;;;;;;;30.04;41.96;100289.95;102252;1305;61386;-82
2023/08/04 03:07:19;;;;;;;;;;;;;;;30.04;41.90;100291.58;102309;1301;61431;-82
2023/08/04 03:09:44;;;;;;;;;;;;;;;30.04;41.94;100291.25;102346;1303;62667;-82
2023/08/04 03:12:10;;;;;;;;;;;;;;;30.04;41.94;100292.54;102290;1303;62607;-82
2023/08/04 03:14:35;;;;;;;;;;;;;;;30.04;41.92;100293.96;102323;1308;61422;-82
2023/08/04 03:17:00;;;;;;;;;;;;;;;30.04;41.77;100294.93;102207;1308;61399;-82
2023/08/04 03:19:26;;;;;;;;;;;;;;;30.04;41.79;100297.98;102316;1301;61447;-83
2023/08/04 03:21:52;;;;;;;;;;;;;;;30.04;41.97;100299.77;102266;1303;61377;-83
2023/08/04 03:24:17;;;;;;;;;;;;;;;30.04;41.92;100306.91;102319;1309;61432;-83
2023/08/04 03:26:43;;;;;;;;;;;;;;;30.04;41.86;100311.60;102338;1303;61393;-83
2023/08/04 03:29:08;;;;;;;;;;;;;;;30.04;42.05;100318.89;102271;1303;61438;-83
2023/08/04 03:31:33;;;;;;;;;;;;;;;30.04;41.98;100318.67;102487;1303;61446;-81
2023/08/04 03:33:59;;;;;;;;;;;;;;;30.04;41.89;100318.52;102302;1302;61444;-82
2023/08/04 03:36:24;;;;;;;;;;;;;;;30.04;41.87;100319.80;102343;1302;61408;-82
2023/08/04 03:38:50;;;;;;;;;;;;;;;30.04;42.00;100325.04;102225;1301;61488;-82
2023/08/04 03:41:15;;;;;;;;;;;;;;;30.04;42.14;100326.98;102298;1302;62188;-82
2023/08/04 03:43:40;;;;;;;;;;;;;;;30.04;41.96;100326.05;102325;1303;61450;-82
2023/08/04 03:46:06;;;;;;;;;;;;;;;30.04;42.00;100327.54;102248;1305;61438;-82
2023/08/04 03:48:32;;;;;;;;;;;;;;;30.04;41.90;100331.33;102290;1303;61340;-82
2023/08/04 03:50:58;;;;;;;;;;;;;;;30.04;41.86;100331.29;102253;1307;61522;-82
2023/08/04 03:53:23;;;;;;;;;;;;;;;30.04;41.84;100329.86;102288;1303;61358;-82
2023/08/04 03:55:48;;;;;;;;;;;;;;;30.04;41.90;100328.93;102341;1302;61444;-82
2023/08/04 03:58:14;;;;;;;;;;;;;;;30.04;41.92;100329.11;102333;1308;61489;-82
2023/08/04 04:00:39;;;;;;;;;;;;;;;30.05;41.91;100327.27;102268;1302;61297;-82
2023/08/04 04:03:05;;;;;;;;;;;;;;;30.04;42.04;100328.05;102249;1303;61359;-82
2023/08/04 04:05:30;;;;;;;;;;;;;;;30.05;41.99;100329.45;102237;1303;61419;-82
2023/08/04 04:07:56;;;;;;;;;;;;;;;30.05;42.10;100326.93;102245;1302;61501;-82
2023/08/04 04:10:21;;;;;;;;;;;;;;;30.04;42.04;100328.23;102311;1303;61474;-82
2023/08/04 04:12:46;;;;;;;;;;;;;;;30.04;42.13;100325.50;102311;1303;61504;-82
2023/08/04 04:15:12;;;;;;;;;;;;;;;30.04;41.99;100325.89;102377;1303;62092;-82
2023/08/04 04:17:37;;;;;;;;;;;;;;;30.04;41.94;100327.34;102192;1308;61395;-82
2023/08/04 04:20:03;;;;;;;;;;;;;;;30.04;41.93;100328.98;102311;1303;61510;-82
2023/08/04 04:22:30;;;;;;;;;;;;;;;30.04;42.00;100328.05;102362;1306;61438;-82
2023/08/04 04:24:57;;;;;;;;;;;;;;;30.04;42.05;100324.83;102282;1301;61415;-82
2023/08/04 04:27:23;;;;;;;;;;;;;;;30.04;41.98;100325.73;102272;1302;61451;-82
2023/08/04 04:29:48;;;;;;;;;;;;;;;30.04;42.06;100327.04;102234;1302;61387;-82
2023/08/04 04:32:13;;;;;;;;;;;;;;;30.04;41.89;100326.66;102267;1303;61431;-82
2023/08/04 04:34:40;;;;;;;;;;;;;;;30.04;42.00;100328.98;102288;1305;61434;-82
2023/08/04 04:37:05;;;;;;;;;;;;;;;30.03;42.02;100328.89;102349;1303;61393;-82
2023/08/04 04:39:31;;;;;;;;;;;;;;;30.04;42.00;100331.57;102243;1303;61432;-82
2023/08/04 04:41:56;;;;;;;;;;;;;;;30.04;41.94;100335.55;102253;1302;62008;-82
2023/08/04 04:44:22;;;;;;;;;;;;;;;30.04;41.96;100333.70;102282;1302;61438;-82
2023/08/04 04:46:48;;;;;;;;;;;;;;;30.04;42.03;100336.46;102415;1300;61404;-82
2023/08/04 04:49:14;;;;;;;;;;;;;;;30.04;41.88;100339.89;102602;1300;61419;-82
2023/08/04 04:51:42;;;;;;;;;;;;;;;30.04;41.90;100339.14;102593;1300;63832;-82
2023/08/04 04:54:08;;;;;;;;;;;;;;;30.04;41.87;100343.83;102434;1303;61431;-82
2023/08/04 04:56:33;;;;;;;;;;;;;;;30.04;42.07;100342.95;102643;1303;61512;-82
2023/08/04 04:58:59;;;;;;;;;;;;;;;30.03;42.04;100345.23;102854;1299;61377;-82
2023/08/04 05:01:24;;;;;;;;;;;;;;;30.03;41.90;100346.14;102539;1300;61434;-82
2023/08/04 05:03:49;;;;;;;;;;;;;;;30.03;41.93;100352.36;102555;1305;61500;-82
2023/08/04 05:06:15;;;;;;;;;;;;;;;30.02;41.95;100350.16;102521;1299;61520;-82
2023/08/04 05:08:40;;;;;;;;;;;;;;;30.01;41.83;100350.02;102248;1300;61368;-82
2023/08/04 05:11:06;;;;;;;;;;;;;;;30.00;41.96;100350.16;102562;1299;61402;-82
2023/08/04 05:13:31;;;;;;;;;;;;;;;30.00;41.73;100348.90;103236;1305;61442;-82
2023/08/04 05:15:57;;;;;;;;;;;;;;;30.00;41.86;100349.62;103166;1300;61442;-82
2023/08/04 05:18:22;;;;;;;;;;;;;;;30.00;41.75;100348.29;103272;1300;61399;-82
2023/08/04 05:20:48;;;;;;;;;;;;;;;30.00;41.67;100345.19;102995;1300;63049;-82
2023/08/04 05:23:13;;;;;;;;;;;;;;;30.01;41.72;100346.21;102410;1303;61431;-82
2023/08/04 05:25:41;;;;;;;;;;;;;;;30.02;41.64;100345.76;102408;1302;61315;-82
2023/08/04 05:28:23;;;;;;;;;;;;;;;30.02;41.69;100346.23;102294;1300;63652;-82
2023/08/04 05:30:53;;;;;;;;;;;;;;;30.03;41.55;100346.16;102582;1300;65710;-82
2023/08/04 05:33:18;;;;;;;;;;;;;;;30.03;41.56;100347.77;102271;1302;61179;-82
2023/08/04 05:35:44;;;;;;;;;;;;;;;30.04;41.55;100346.98;102431;1303;62004;-82
2023/08/04 05:38:10;;;;;;;;;;;;;;;30.04;41.56;100344.94;102576;1304;61304;-82
2023/08/04 05:40:37;;;;;;;;;;;;;;;30.05;41.55;100346.35;102678;1300;62185;-82
2023/08/04 05:43:04;;;;;;;;;;;;;;;30.05;41.44;100351.21;102302;1300;61380;-82
2023/08/04 05:45:36;;;;;;;;;;;;;;;30.05;41.55;100352.10;102432;1300;61508;-82
2023/08/04 05:48:02;;;;;;;;;;;;;;;30.06;41.46;100351.10;102376;1301;63752;-82
2023/08/04 05:50:27;;;;;;;;;;;;;;;30.06;41.47;100352.88;102565;1303;61940;-82
2023/08/04 05:52:53;;;;;;;;;;;;;;;30.07;41.35;100358.59;102374;1303;61445;-82
2023/08/04 05:55:21;;;;;;;;;;;;;;;30.08;41.51;100360.86;102522;1303;61339;-82
2023/08/04 05:57:46;;;;;;;;;;;;;;;30.08;41.49;100360.33;102523;1302;61491;-81
2023/08/04 06:00:12;;;;;;;;;;;;;;;30.08;41.33;100359.91;102393;1301;61378;-81
2023/08/04 06:02:38;;;;;;;;;;;;;;;30.09;41.49;100360.18;102592;1300;61474;-81
2023/08/04 06:05:03;;;;;;;;;;;;;;;30.09;41.41;100363.41;102403;1303;61313;-81
2023/08/04 06:07:29;;;;;;;;;;;;;;;30.10;41.37;100360.95;102407;1300;61421;-81
2023/08/04 06:09:54;;;;;;;;;;;;;;;30.11;41.36;100359.20;102407;1300;61490;-80
2023/08/04 06:12:19;;;;;;;;;;;;;;;30.13;41.38;100362.33;102757;1300;61362;-81
2023/08/04 06:14:45;;;;;;;;;;;;;;;30.13;41.54;100365.14;102318;1305;61956;-81
2023/08/04 06:17:10;;;;;;;;;;;;;;;30.14;41.35;100366.71;102565;1300;61416;-81
2023/08/04 06:19:38;;;;;;;;;;;;;;;30.15;41.40;100367.65;102318;1300;62135;-81
2023/08/04 06:22:04;;;;;;;;;;;;;;;30.15;41.33;100368.50;102416;1302;61434;-81
2023/08/04 06:24:30;;;;;;;;;;;;;;;30.16;41.42;100363.70;102493;1300;61505;-81
2023/08/04 06:26:55;;;;;;;;;;;;;;;30.17;41.33;100363.98;102487;1299;61360;-81
2023/08/04 06:29:20;;;;;;;;;;;;;;;30.17;41.32;100361.22;102604;1300;62028;-81
2023/08/04 06:31:46;;;;;;;;;;;;;;;30.18;41.30;100360.05;102961;1300;61489;-81
2023/08/04 06:34:12;;;;;;;;;;;;;;;30.19;41.29;100360.40;102864;1300;63852;-81
2023/08/04 06:36:37;;;;;;;;;;;;;;;30.20;41.35;100361.80;102785;1305;61331;-81
2023/08/04 06:39:03;;;;;;;;;;;;;;;30.21;41.47;100362.23;102828;1300;61370;-81
2023/08/04 06:41:29;;;;;;;;;;;;;;;30.22;41.21;100364.65;102718;1300;61432;-81
2023/08/04 06:43:55;;;;;;;;;;;;;;;30.22;41.31;100363.28;102729;1300;61416;-81
2023/08/04 06:46:20;;;;;;;;;;;;;;;30.23;41.33;100363.75;102768;1305;61335;-81
2023/08/04 06:48:46;;;;;;;;;;;;;;;30.24;41.23;100365.27;102666;1300;65853;-81
2023/08/04 06:51:11;;;;;;;;;;;;;;;30.25;41.25;100367.14;102629;1300;61414;-81
2023/08/04 06:53:36;;;;;;;;;;;;;;;30.26;41.29;100367.61;102629;1303;62031;-82
2023/08/04 06:56:02;;;;;;;;;;;;;;;30.27;41.13;100370.63;102432;1300;61444;-81
2023/08/04 06:58:28;;;;;;;;;;;;;;;30.28;41.23;100370.36;102789;1300;61434;-81
2023/08/04 07:00:53;;;;;;;;;;;;;;;30.28;41.20;100372.70;102570;1300;65599;-82
2023/08/04 07:03:19;;;;;;;;;;;;;;;30.28;41.28;100369.36;102466;1300;61447;-81
2023/08/04 07:05:45;;;;;;;;;;;;;;;30.29;41.22;100366.94;102411;1305;61419;-81
2023/08/04 07:08:10;;;;;;;;;;;;;;;30.30;41.09;100367.59;102544;1300;61387;-81
2023/08/04 07:10:35;;;;;;;;;;;;;;;30.30;41.06;100369.70;102273;1300;333183;-81
2023/08/04 07:13:01;;;;;;;;;;;;;;;30.30;41.09;100372.77;102566;1304;65895;-81
2023/08/04 07:15:27;;;;;;;;;;;;;;;30.31;41.06;100370.71;102471;1300;61533;-81
2023/08/04 07:17:52;;;;;;;;;;;;;;;30.31;40.99;100369.20;102437;1299;61979;-82
2023/08/04 07:20:18;;;;;;;;;;;;;;;30.32;41.04;100371.69;102565;1304;61451;-81
2023/08/04 07:22:43;;;;;;;;;;;;;;;30.32;40.98;100374.34;102671;1300;61403;-81
2023/08/04 07:25:08;;;;;;;;;;;;;;;30.33;40.96;100373.92;102675;1300;65674;-81
2023/08/04 07:27:34;;;;;;;;;;;;;;;30.32;40.96;100374.71;102464;1305;61384;-81
2023/08/04 07:29:59;;;;;;;;;;;;;;;30.33;40.97;100373.17;102687;1300;61595;-81
2023/08/04 07:32:25;;;;;;;;;;;;;;;30.33;41.13;100371.54;102582;1307;61339;-81
2023/08/04 07:34:51;;;;;;;;;;;;;;;30.33;40.96;100372.39;102665;1303;61425;-81
2023/08/04 07:37:16;;;;;;;;;;;;;;;30.34;41.04;100375.24;102942;1299;66208;-81
2023/08/04 07:39:42;;;;;;;;;;;;;;;30.34;40.95;100371.23;102842;1305;62051;-81
2023/08/04 07:42:07;;;;;;;;;;;;;;;30.35;40.93;100365.66;102812;1300;61374;-81
2023/08/04 07:44:35;;;;;;;;;;;;;;;30.35;41.04;100365.09;102579;1299;61499;-81
2023/08/04 07:47:01;;;;;;;;;;;;;;;30.35;40.97;100364.37;102781;1299;61339;-81
2023/08/04 07:49:26;;;;;;;;;;;;;;;30.36;41.00;100364.69;102655;1299;61509;-81
2023/08/04 07:51:52;;;;;;;;;;;;;;;30.36;40.97;100364.95;102791;1299;61402;-81
2023/08/04 07:54:17;;;;;;;;;;;;;;;30.37;40.91;100362.19;102872;1300;61409;-81
2023/08/04 07:56:43;;;;;;;;;;;;;;;30.37;40.94;100363.29;102640;1305;61909;-81
2023/08/04 07:59:08;;;;;;;;;;;;;;;30.38;40.88;100366.45;102712;1300;61517;-81
2023/08/04 08:01:34;;;;;;;;;;;;;;;30.38;40.89;100365.55;102835;1300;62216;-81
2023/08/04 08:04:00;;;;;;;;;;;;;;;30.38;40.84;100368.37;102732;1301;61375;-82
2023/08/04 08:06:26;;;;;;;;;;;;;;;30.38;40.97;100367.84;102560;1300;61451;-81
2023/08/04 08:08:51;;;;;;;;;;;;;;;30.39;40.97;100364.11;102570;1301;61502;-81
2023/08/04 08:11:17;;;;;;;;;;;;;;;30.39;40.97;100370.44;102732;1300;61422;-81
2023/08/04 08:13:42;;;;;;;;;;;;;;;30.39;40.97;100368.19;102398;1300;62092;-81
2023/08/04 08:16:11;;;;;;;;;;;;;;;30.39;40.93;100369.31;102459;1300;61511;-81
2023/08/04 08:18:38;;;;;;;;;;;;;;;30.40;40.84;100367.11;102391;1299;64384;-81
2023/08/04 08:21:07;;;;;;;;;;;;;;;30.40;40.83;100365.94;102676;1301;65815;-81
2023/08/04 08:23:32;;;;;;;;;;;;;;;30.40;40.92;100363.41;102626;1299;61422;-82
2023/08/04 08:25:58;;;;;;;;;;;;;;;30.40;40.83;100367.36;102553;1305;61361;-82
2023/08/04 08:28:23;;;;;;;;;;;;;;;30.40;40.91;100360.84;102636;1303;61518;-82
2023/08/04 08:30:48;;;;;;;;;;;;;;;30.41;40.86;100363.52;103001;1300;61470;-82
2023/08/04 08:33:14;;;;;;;;;;;;;;;30.41;40.84;100363.89;102645;1300;61614;-82
2023/08/04 08:35:39;;;;;;;;;;;;;;;30.41;40.87;100362.73;102999;1305;61448;-82
2023/08/04 08:38:05;;;;;;;;;;;;;;;30.41;40.96;100362.02;103051;1300;61415;-82
2023/08/04 08:40:30;;;;;;;;;;;;;;;30.41;40.83;100361.05;103205;1305;62314;-82
2023/08/04 08:42:57;;;;;;;;;;;;;;;30.42;40.93;100356.28;102931;1303;61502;-82
2023/08/04 08:45:27;;;;;;;;;;;;;;;30.43;40.91;100354.58;103021;1299;61287;-82
2023/08/04 08:47:52;;;;;;;;;;;;;;;30.43;40.89;100357.83;102943;1300;61336;-82
2023/08/04 08:50:18;;;;;;;;;;;;;;;30.43;40.84;100356.52;102902;1302;62615;-82
2023/08/04 08:52:43;;;;;;;;;;;;;;;30.44;40.86;100357.17;103056;1303;61428;-82
2023/08/04 08:55:08;;;;;;;;;;;;;;;30.45;41.05;100352.56;102799;1300;61518;-82
2023/08/04 08:57:34;;;;;;;;;;;;;;;30.45;41.02;100353.09;102763;1300;61320;-81
2023/08/04 09:00:00;;;;;;;;;;;;;;;30.45;40.83;100358.31;102761;1303;61450;-81
2023/08/04 09:02:25;;;;;;;;;;;;;;;30.46;40.83;100355.67;102653;1305;61433;-81
2023/08/04 09:04:51;;;;;;;;;;;;;;;30.46;40.89;100356.59;102821;1300;61416;-81
2023/08/04 09:07:17;;;;;;;;;;;;;;;30.46;40.84;100356.08;102787;1300;61435;-81
2023/08/04 09:09:42;;;;;;;;;;;;;;;30.46;40.89;100354.54;102833;1300;63201;-81
2023/08/04 09:12:08;;;;;;;;;;;;;;;30.47;40.89;100355.61;102635;1300;61395;-81
2023/08/04 09:14:46;;;;;;;;;;;;;;;30.47;40.89;100357.41;102478;1300;61330;-81
2023/08/04 09:17:22;;;;;;;;;;;;;;;30.47;40.86;100351.93;102832;1300;65965;-81
2023/08/04 09:19:47;;;;;;;;;;;;;;;30.47;40.88;100350.80;102570;1300;61233;-81
2023/08/04 09:22:12;;;;;;;;;;;;;;;30.47;40.87;100346.52;102818;1300;61870;-81
2023/08/04 09:24:38;;;;;;;;;;;;;;;30.47;40.84;100344.64;102506;1300;61518;-81
2023/08/04 09:27:03;;;;;;;;;;;;;;;30.47;40.72;100338.14;102743;1305;61437;-82
2023/08/04 09:29:29;;;;;;;;;;;;;;;30.47;40.77;100341.23;102728;1300;62906;-81
2023/08/04 09:31:54;;;;;;;;;;;;;;;30.47;40.73;100337.73;102697;1300;61463;-81
2023/08/04 09:34:20;;;;;;;;;;;;;;;30.47;40.68;100334.67;102601;1300;61282;-81
2023/08/04 09:36:46;;;;;;;;;;;;;;;30.48;40.71;100334.27;102339;1300;61517;-82
2023/08/04 09:39:12;;;;;;;;;;;;;;;30.47;40.65;100333.60;102458;1303;61316;-82
2023/08/04 09:41:38;;;;;;;;;;;;;;;30.47;40.64;100331.95;102755;1300;61367;-81
2023/08/04 09:44:05;;;;;;;;;;;;;;;30.47;40.57;100330.31;102901;1303;61736;-82
2023/08/04 09:46:30;;;;;;;;;;;;;;;30.48;40.53;100330.83;102811;1300;61332;-81
2023/08/04 09:48:59;;;;;;;;;;;;;;;30.48;40.66;100325.38;102790;1305;61425;-81
2023/08/04 09:51:25;;;;;;;;;;;;;;;30.48;40.75;100324.83;102899;1300;66015;-81
2023/08/04 09:53:51;;;;;;;;;;;;;;;30.48;40.65;100317.54;102775;1300;61371;-82
2023/08/04 09:56:17;;;;;;;;;;;;;;;30.48;40.68;100317.92;102819;1299;61310;-82
2023/08/04 09:58:43;;;;;;;;;;;;;;;30.48;40.60;100315.12;102564;1299;61520;-81
2023/08/04 10:01:08;;;;;;;;;;;;;;;30.48;40.61;100312.91;102452;1302;61505;-81
2023/08/04 10:03:36;;;;;;;;;;;;;;;30.48;40.67;100309.46;102476;1300;61520;-82
2023/08/04 10:06:01;;;;;;;;;;;;;;;30.49;40.46;100310.14;102475;1300;61507;-82
2023/08/04 10:08:30;;;;;;;;;;;;;;;30.49;40.57;100310.52;102537;1304;61414;-81
2023/08/04 10:10:56;;;;;;;;;;;;;;;30.49;40.54;100311.96;102481;1299;63915;-81
2023/08/04 10:13:22;;;;;;;;;;;;;;;30.49;40.46;100310.48;102540;1300;61448;-81
2023/08/04 10:15:48;;;;;;;;;;;;;;;30.49;40.51;100307.45;102341;1300;61431;-81
2023/08/04 10:18:13;;;;;;;;;;;;;;;30.49;40.59;100305.98;102310;1300;61289;-82
2023/08/04 10:20:39;;;;;;;;;;;;;;;30.48;40.58;100309.84;102488;1300;61488;-82
2023/08/04 10:23:04;;;;;;;;;;;;;;;30.49;40.34;100304.18;102406;1301;61492;-82
2023/08/04 10:25:30;;;;;;;;;;;;;;;30.49;40.53;100304.31;102673;1305;61441;-82
2023/08/04 10:27:58;;;;;;;;;;;;;;;30.49;40.65;100299.63;102323;1300;61517;-82
2023/08/04 10:30:24;;;;;;;;;;;;;;;30.49;40.73;100297.98;102648;1300;61313;-82
2023/08/04 10:32:50;;;;;;;;;;;;;;;30.48;40.54;100293.50;102756;1300;63892;-82
2023/08/04 10:35:16;;;;;;;;;;;;;;;30.49;40.51;100292.16;102469;1300;61426;-83
2023/08/04 10:37:48;;;;;;;;;;;;;;;30.49;40.56;100292.34;102535;1300;61354;-82
2023/08/04 10:40:14;;;;;;;;;;;;;;;30.49;40.72;100289.27;102557;1300;61489;-83
2023/08/04 10:42:59;;;;;;;;;;;;;;;30.49;40.66;100292.71;102642;1300;62071;-83
2023/08/04 10:45:29;;;;;;;;;;;;;;;30.49;40.60;100293.73;102684;1302;65851;-83
2023/08/04 10:47:54;;;;;;;;;;;;;;;30.49;40.65;100294.48;102651;1302;61434;-82
2023/08/04 10:50:21;;;;;;;;;;;;;;;30.50;40.67;100288.63;102494;1300;61537;-83
2023/08/04 10:52:47;;;;;;;;;;;;;;;30.49;40.71;100285.59;102844;1304;61875;-83
2023/08/04 10:55:13;;;;;;;;;;;;;;;30.50;40.55;100284.77;102509;1300;61447;-83
2023/08/04 10:57:39;;;;;;;;;;;;;;;30.50;40.77;100288.04;102456;1300;61444;-83
2023/08/04 11:00:05;;;;;;;;;;;;;;;30.50;40.74;100286.25;102351;1300;61412;-83
2023/08/04 11:02:31;;;;;;;;;;;;;;;30.50;40.74;100287.15;102648;1300;61341;-82
2023/08/04 11:04:56;;;;;;;;;;;;;;;30.50;40.63;100280.23;102467;1300;61527;-83
2023/08/04 11:07:22;;;;;;;;;;;;;;;30.50;40.62;100274.96;102529;1300;65859;-83
2023/08/04 11:09:48;;;;;;;;;;;;;;;30.50;40.66;100272.23;102555;1300;61419;-83
2023/08/04 11:12:13;;;;;;;;;;;;;;;30.50;40.65;100269.49;102607;1300;61296;-82
2023/08/04 11:14:39;;;;;;;;;;;;;;;30.50;40.54;100268.81;102319;1300;61425;-83
2023/08/04 11:17:11;;;;;;;;;;;;;;;30.50;40.60;100267.69;102568;1300;61418;-83
2023/08/04 11:19:36;;;;;;;;;;;;;;;30.50;40.67;100266.09;102558;1305;61351;-82
2023/08/04 11:22:08;;;;;;;;;;;;;;;30.50;40.68;100268.63;102562;1300;62169;-82
2023/08/04 11:24:34;;;;;;;;;;;;;;;30.49;40.66;100265.40;102502;1300;64104;-82
2023/08/04 11:26:59;;;;;;;;;;;;;;;30.50;40.69;100267.00;102354;1300;61422;-83
2023/08/04 11:29:25;;;;;;;;;;;;;;;30.49;40.71;100266.50;102465;1300;62471;-83
2023/08/04 11:31:50;;;;;;;;;;;;;;;30.49;40.64;100264.48;102321;1300;61376;-82
2023/08/04 11:34:16;;;;;;;;;;;;;;;30.50;40.60;100263.20;102513;1300;61333;-83
2023/08/04 11:36:42;;;;;;;;;;;;;;;30.50;40.67;100259.38;102612;1305;63631;-82
2023/08/04 11:39:07;;;;;;;;;;;;;;;30.50;40.67;100262.48;102361;1300;61816;-83
2023/08/04 11:41:33;;;;;;;;;;;;;;;30.50;40.58;100262.82;102518;1300;61425;-83
2023/08/04 11:43:58;;;;;;;;;;;;;;;30.50;40.68;100259.92;102467;1299;61435;-82
2023/08/04 11:46:24;;;;;;;;;;;;;;;30.50;40.66;100257.54;102388;1308;61370;-82
2023/08/04 11:48:49;;;;;;;;;;;;;;;30.50;40.67;100252.30;102503;1300;61411;-83
2023/08/04 11:51:15;;;;;;;;;;;;;;;30.50;40.77;100249.51;102522;1302;61517;-82
2023/08/04 11:53:41;;;;;;;;;;;;;;;30.50;40.73;100248.80;102558;1300;61432;-82
2023/08/04 11:56:08;;;;;;;;;;;;;;;30.50;40.84;100248.41;102379;1300;61764;-82
2023/08/04 11:58:33;;;;;;;;;;;;;;;30.50;40.76;100247.70;102421;1308;61414;-81
2023/08/04 12:00:58;;;;;;;;;;;;;;;30.50;40.70;100247.48;102662;1300;61559;-81
2023/08/04 12:03:24;;;;;;;;;;;;;;;30.51;40.68;100245.48;102526;1299;61347;-82
2023/08/04 12:05:49;;;;;;;;;;;;;;;30.51;40.78;100242.22;102320;1300;61345;-83
2023/08/04 12:08:15;;;;;;;;;;;;;;;30.51;40.73;100243.80;102430;1303;61470;-82
2023/08/04 12:10:41;;;;;;;;;;;;;;;30.51;40.74;100240.70;102501;1307;61492;-83
2023/08/04 12:13:06;;;;;;;;;;;;;;;30.51;40.66;100236.19;102498;1300;61409;-83
2023/08/04 12:15:52;;;;;;;;;;;;;;;30.51;40.83;100236.19;102377;1300;61384;-82
2023/08/04 12:18:24;;;;;;;;;;;;;;;30.51;40.74;100230.16;102437;1300;62650;-82
2023/08/04 12:20:50;;;;;;;;;;;;;;;30.51;40.79;100224.51;102514;1299;61316;-82